sensor_id;sensor_type;location;lat;lon;timestamp;P1;durP1;ratioP1;P2;durP2;ratioP2
11731;SDS011;5922;53.734;10.258;2024-02-23T00:01:55;0.90;;;0.90;;
11731;SDS011;5922;53.734;10.258;2024-02-23T00:04:22;1.00;;;0.70;;
11731;SDS011;5922;53.734;10.258;2024-02-23T00:06:50;0.83;;;0.80;;
11731;SDS011;5922;53.734;10.258;2024-02-23T00:09:17;1.80;;;0.90;;
11731;SDS011;5922;53.734;10.258;2024-02-23T00:11:46;4.43;;;0.80;;
11731;SDS011;5922;53.734;10.258;2024-02-23T00:14:15;1.53;;;0.80;;
11731;SDS011;5922;53.734;10.258;2024-02-23T00:16:43;1.37;;;0.83;;
11731;SDS011;5922;53.734;10.258;2024-02-23T00:19:11;3.23;;;0.80;;
11731;SDS011;5922;53.734;10.258;2024-02-23T00:21:38;1.83;;;0.90;;
11731;SDS011;5922;53.734;10.258;2024-02-23T00:24:07;3.03;;;1.00;;
11731;SDS011;5922;53.734;10.258;2024-02-23T00:26:34;1.80;;;1.10;;
11731;SDS011;5922;53.734;10.258;2024-02-23T00:29:03;1.00;;;0.90;;
11731;SDS011;5922;53.734;10.258;2024-02-23T00:31:30;3.83;;;1.00;;
11731;SDS011;5922;53.734;10.258;2024-02-23T00:33:58;1.83;;;0.97;;
11731;SDS011;5922;53.734;10.258;2024-02-23T00:36:25;1.03;;;0.90;;
11731;SDS011;5922;53.734;10.258;2024-02-23T00:38:52;1.73;;;1.10;;
11731;SDS011;5922;53.734;10.258;2024-02-23T00:41:19;2.47;;;1.20;;
11731;SDS011;5922;53.734;10.258;2024-02-23T00:43:47;0.93;;;0.90;;
11731;SDS011;5922;53.734;10.258;2024-02-23T00:46:15;1.10;;;1.10;;
11731;SDS011;5922;53.734;10.258;2024-02-23T00:48:43;1.47;;;0.80;;
11731;SDS011;5922;53.734;10.258;2024-02-23T00:51:10;1.90;;;0.90;;
11731;SDS011;5922;53.734;10.258;2024-02-23T00:53:37;1.93;;;0.90;;
11731;SDS011;5922;53.734;10.258;2024-02-23T00:56:05;0.90;;;0.90;;
11731;SDS011;5922;53.734;10.258;2024-02-23T00:58:32;1.97;;;0.80;;
11731;SDS011;5922;53.734;10.258;2024-02-23T01:00:59;1.00;;;0.93;;
11731;SDS011;5922;53.734;10.258;2024-02-23T01:03:28;3.27;;;0.73;;
11731;SDS011;5922;53.734;10.258;2024-02-23T01:05:55;1.40;;;0.40;;
11731;SDS011;5922;53.734;10.258;2024-02-23T01:08:23;0.50;;;0.50;;
11731;SDS011;5922;53.734;10.258;2024-02-23T01:10:50;1.10;;;0.50;;
11731;SDS011;5922;53.734;10.258;2024-02-23T01:13:17;0.90;;;0.40;;
11731;SDS011;5922;53.734;10.258;2024-02-23T01:15:44;0.53;;;0.43;;
11731;SDS011;5922;53.734;10.258;2024-02-23T01:18:12;0.47;;;0.40;;
11731;SDS011;5922;53.734;10.258;2024-02-23T01:20:40;0.40;;;0.40;;
11731;SDS011;5922;53.734;10.258;2024-02-23T01:23:07;0.40;;;0.40;;
11731;SDS011;5922;53.734;10.258;2024-02-23T01:25:35;0.87;;;0.53;;
11731;SDS011;5922;53.734;10.258;2024-02-23T01:28:02;0.40;;;0.40;;
11731;SDS011;5922;53.734;10.258;2024-02-23T01:30:30;0.20;;;0.20;;
11731;SDS011;5922;53.734;10.258;2024-02-23T01:32:57;0.43;;;0.30;;
11731;SDS011;5922;53.734;10.258;2024-02-23T01:35:25;0.67;;;0.43;;
11731;SDS011;5922;53.734;10.258;2024-02-23T01:37:55;0.30;;;0.30;;
11731;SDS011;5922;53.734;10.258;2024-02-23T01:40:22;0.33;;;0.30;;
11731;SDS011;5922;53.734;10.258;2024-02-23T01:42:59;0.37;;;0.30;;
11731;SDS011;5922;53.734;10.258;2024-02-23T01:45:27;0.30;;;0.30;;
11731;SDS011;5922;53.734;10.258;2024-02-23T01:47:54;0.37;;;0.37;;
11731;SDS011;5922;53.734;10.258;2024-02-23T01:50:21;0.47;;;0.30;;
11731;SDS011;5922;53.734;10.258;2024-02-23T01:52:49;0.30;;;0.30;;
11731;SDS011;5922;53.734;10.258;2024-02-23T01:55:19;1.43;;;0.37;;
11731;SDS011;5922;53.734;10.258;2024-02-23T01:57:47;0.73;;;0.30;;
11731;SDS011;5922;53.734;10.258;2024-02-23T02:00:15;0.40;;;0.40;;
11731;SDS011;5922;53.734;10.258;2024-02-23T02:02:43;0.33;;;0.33;;
11731;SDS011;5922;53.734;10.258;2024-02-23T02:05:10;0.23;;;0.23;;
11731;SDS011;5922;53.734;10.258;2024-02-23T02:07:37;0.83;;;0.40;;
11731;SDS011;5922;53.734;10.258;2024-02-23T02:10:08;0.33;;;0.23;;
11731;SDS011;5922;53.734;10.258;2024-02-23T02:12:37;0.37;;;0.37;;
11731;SDS011;5922;53.734;10.258;2024-02-23T02:15:04;0.57;;;0.30;;
11731;SDS011;5922;53.734;10.258;2024-02-23T02:17:32;0.50;;;0.40;;
11731;SDS011;5922;53.734;10.258;2024-02-23T02:19:59;0.20;;;0.20;;
11731;SDS011;5922;53.734;10.258;2024-02-23T02:22:31;1.30;;;0.40;;
11731;SDS011;5922;53.734;10.258;2024-02-23T02:24:59;0.30;;;0.30;;
11731;SDS011;5922;53.734;10.258;2024-02-23T02:27:27;0.37;;;0.37;;
11731;SDS011;5922;53.734;10.258;2024-02-23T02:29:55;0.20;;;0.20;;
11731;SDS011;5922;53.734;10.258;2024-02-23T02:32:23;0.20;;;0.20;;
11731;SDS011;5922;53.734;10.258;2024-02-23T02:34:50;0.20;;;0.20;;
11731;SDS011;5922;53.734;10.258;2024-02-23T02:37:17;0.20;;;0.20;;
11731;SDS011;5922;53.734;10.258;2024-02-23T02:39:44;0.20;;;0.20;;
11731;SDS011;5922;53.734;10.258;2024-02-23T02:42:12;0.10;;;0.10;;
11731;SDS011;5922;53.734;10.258;2024-02-23T02:44:39;0.47;;;0.30;;
11731;SDS011;5922;53.734;10.258;2024-02-23T02:47:09;0.20;;;0.20;;
11731;SDS011;5922;53.734;10.258;2024-02-23T02:49:36;0.20;;;0.20;;
11731;SDS011;5922;53.734;10.258;2024-02-23T02:52:06;0.20;;;0.20;;
11731;SDS011;5922;53.734;10.258;2024-02-23T02:54:34;0.20;;;0.20;;
11731;SDS011;5922;53.734;10.258;2024-02-23T02:57:01;0.20;;;0.20;;
11731;SDS011;5922;53.734;10.258;2024-02-23T02:59:29;0.40;;;0.40;;
11731;SDS011;5922;53.734;10.258;2024-02-23T03:01:57;0.20;;;0.20;;
11731;SDS011;5922;53.734;10.258;2024-02-23T03:04:26;0.10;;;0.10;;
11731;SDS011;5922;53.734;10.258;2024-02-23T03:06:53;1.60;;;0.27;;
11731;SDS011;5922;53.734;10.258;2024-02-23T03:09:20;0.57;;;0.20;;
11731;SDS011;5922;53.734;10.258;2024-02-23T03:11:47;0.20;;;0.20;;
11731;SDS011;5922;53.734;10.258;2024-02-23T03:14:15;0.47;;;0.20;;
11731;SDS011;5922;53.734;10.258;2024-02-23T03:16:44;0.23;;;0.20;;
11731;SDS011;5922;53.734;10.258;2024-02-23T03:19:12;0.30;;;0.23;;
11731;SDS011;5922;53.734;10.258;2024-02-23T03:21:42;0.37;;;0.30;;
11731;SDS011;5922;53.734;10.258;2024-02-23T03:24:09;0.40;;;0.30;;
11731;SDS011;5922;53.734;10.258;2024-02-23T03:26:36;0.30;;;0.27;;
11731;SDS011;5922;53.734;10.258;2024-02-23T03:29:04;0.20;;;0.20;;
11731;SDS011;5922;53.734;10.258;2024-02-23T03:31:31;0.67;;;0.13;;
11731;SDS011;5922;53.734;10.258;2024-02-23T03:33:59;0.93;;;0.30;;
11731;SDS011;5922;53.734;10.258;2024-02-23T03:36:26;0.40;;;0.40;;
11731;SDS011;5922;53.734;10.258;2024-02-23T03:38:55;1.17;;;0.53;;
11731;SDS011;5922;53.734;10.258;2024-02-23T03:41:22;1.20;;;0.50;;
11731;SDS011;5922;53.734;10.258;2024-02-23T03:43:49;1.70;;;0.80;;
11731;SDS011;5922;53.734;10.258;2024-02-23T03:46:16;1.27;;;0.57;;
11731;SDS011;5922;53.734;10.258;2024-02-23T03:48:45;0.63;;;0.53;;
11731;SDS011;5922;53.734;10.258;2024-02-23T03:51:12;1.57;;;0.40;;
11731;SDS011;5922;53.734;10.258;2024-02-23T03:53:39;0.70;;;0.60;;
11731;SDS011;5922;53.734;10.258;2024-02-23T03:56:08;0.87;;;0.40;;
11731;SDS011;5922;53.734;10.258;2024-02-23T03:58:35;0.87;;;0.50;;
11731;SDS011;5922;53.734;10.258;2024-02-23T04:01:02;1.60;;;0.70;;
11731;SDS011;5922;53.734;10.258;2024-02-23T04:03:30;1.03;;;0.50;;
11731;SDS011;5922;53.734;10.258;2024-02-23T04:05:57;1.17;;;0.57;;
11731;SDS011;5922;53.734;10.258;2024-02-23T04:08:24;2.40;;;0.50;;
11731;SDS011;5922;53.734;10.258;2024-02-23T04:10:52;3.00;;;0.70;;
11731;SDS011;5922;53.734;10.258;2024-02-23T04:13:21;1.43;;;0.60;;
11731;SDS011;5922;53.734;10.258;2024-02-23T04:15:48;3.60;;;0.57;;
11731;SDS011;5922;53.734;10.258;2024-02-23T04:18:15;0.70;;;0.70;;
11731;SDS011;5922;53.734;10.258;2024-02-23T04:20:42;0.83;;;0.60;;
11731;SDS011;5922;53.734;10.258;2024-02-23T04:23:10;1.83;;;0.80;;
11731;SDS011;5922;53.734;10.258;2024-02-23T04:25:37;0.97;;;0.73;;
11731;SDS011;5922;53.734;10.258;2024-02-23T04:28:04;2.13;;;0.70;;
11731;SDS011;5922;53.734;10.258;2024-02-23T04:30:33;1.43;;;0.70;;
11731;SDS011;5922;53.734;10.258;2024-02-23T04:33:00;0.50;;;0.50;;
11731;SDS011;5922;53.734;10.258;2024-02-23T04:35:28;2.40;;;0.97;;
11731;SDS011;5922;53.734;10.258;2024-02-23T04:37:55;1.90;;;0.80;;
11731;SDS011;5922;53.734;10.258;2024-02-23T04:40:22;1.37;;;0.90;;
11731;SDS011;5922;53.734;10.258;2024-02-23T04:42:49;0.70;;;0.70;;
11731;SDS011;5922;53.734;10.258;2024-02-23T04:45:17;0.80;;;0.70;;
11731;SDS011;5922;53.734;10.258;2024-02-23T04:47:45;2.20;;;1.00;;
11731;SDS011;5922;53.734;10.258;2024-02-23T04:50:13;2.27;;;1.27;;
11731;SDS011;5922;53.734;10.258;2024-02-23T04:52:40;4.10;;;1.00;;
11731;SDS011;5922;53.734;10.258;2024-02-23T04:55:08;2.57;;;1.00;;
11731;SDS011;5922;53.734;10.258;2024-02-23T04:57:36;2.17;;;1.13;;
11731;SDS011;5922;53.734;10.258;2024-02-23T05:00:04;2.93;;;1.33;;
11731;SDS011;5922;53.734;10.258;2024-02-23T05:02:32;1.97;;;1.00;;
11731;SDS011;5922;53.734;10.258;2024-02-23T05:05:01;1.20;;;0.90;;
11731;SDS011;5922;53.734;10.258;2024-02-23T05:07:29;1.10;;;1.00;;
11731;SDS011;5922;53.734;10.258;2024-02-23T05:09:57;1.30;;;1.00;;
11731;SDS011;5922;53.734;10.258;2024-02-23T05:12:24;1.40;;;0.97;;
11731;SDS011;5922;53.734;10.258;2024-02-23T05:14:52;2.20;;;0.90;;
11731;SDS011;5922;53.734;10.258;2024-02-23T05:17:19;2.30;;;0.90;;
11731;SDS011;5922;53.734;10.258;2024-02-23T05:19:46;1.47;;;0.87;;
11731;SDS011;5922;53.734;10.258;2024-02-23T05:22:15;1.57;;;1.00;;
11731;SDS011;5922;53.734;10.258;2024-02-23T05:24:42;2.07;;;1.27;;
11731;SDS011;5922;53.734;10.258;2024-02-23T05:27:10;1.20;;;1.10;;
11731;SDS011;5922;53.734;10.258;2024-02-23T05:29:37;4.17;;;1.33;;
11731;SDS011;5922;53.734;10.258;2024-02-23T05:32:05;3.43;;;1.50;;
11731;SDS011;5922;53.734;10.258;2024-02-23T05:34:33;2.37;;;1.20;;
11731;SDS011;5922;53.734;10.258;2024-02-23T05:37:01;2.37;;;1.33;;
11731;SDS011;5922;53.734;10.258;2024-02-23T05:39:30;2.73;;;1.27;;
11731;SDS011;5922;53.734;10.258;2024-02-23T05:41:57;1.30;;;1.20;;
11731;SDS011;5922;53.734;10.258;2024-02-23T05:44:25;3.00;;;1.20;;
11731;SDS011;5922;53.734;10.258;2024-02-23T05:46:53;2.43;;;1.40;;
11731;SDS011;5922;53.734;10.258;2024-02-23T05:49:20;2.40;;;1.30;;
11731;SDS011;5922;53.734;10.258;2024-02-23T05:51:48;3.70;;;1.50;;
11731;SDS011;5922;53.734;10.258;2024-02-23T05:54:15;2.43;;;1.40;;
11731;SDS011;5922;53.734;10.258;2024-02-23T05:56:45;5.00;;;1.80;;
11731;SDS011;5922;53.734;10.258;2024-02-23T05:59:12;5.90;;;1.43;;
11731;SDS011;5922;53.734;10.258;2024-02-23T06:01:40;2.10;;;1.37;;
11731;SDS011;5922;53.734;10.258;2024-02-23T06:04:07;1.70;;;1.30;;
11731;SDS011;5922;53.734;10.258;2024-02-23T06:06:34;3.70;;;1.60;;
11731;SDS011;5922;53.734;10.258;2024-02-23T06:09:01;2.47;;;1.30;;
11731;SDS011;5922;53.734;10.258;2024-02-23T06:11:30;1.77;;;1.37;;
11731;SDS011;5922;53.734;10.258;2024-02-23T06:13:59;3.80;;;1.40;;
11731;SDS011;5922;53.734;10.258;2024-02-23T06:16:26;3.20;;;1.30;;
11731;SDS011;5922;53.734;10.258;2024-02-23T06:18:54;4.30;;;1.53;;
11731;SDS011;5922;53.734;10.258;2024-02-23T06:21:21;6.63;;;1.53;;
11731;SDS011;5922;53.734;10.258;2024-02-23T06:23:48;3.67;;;1.30;;
11731;SDS011;5922;53.734;10.258;2024-02-23T06:26:16;3.23;;;1.30;;
11731;SDS011;5922;53.734;10.258;2024-02-23T06:28:43;1.70;;;1.10;;
11731;SDS011;5922;53.734;10.258;2024-02-23T06:31:12;4.20;;;1.00;;
11731;SDS011;5922;53.734;10.258;2024-02-23T06:33:39;3.90;;;1.30;;
11731;SDS011;5922;53.734;10.258;2024-02-23T06:36:07;2.20;;;1.23;;
11731;SDS011;5922;53.734;10.258;2024-02-23T06:38:34;3.90;;;1.30;;
11731;SDS011;5922;53.734;10.258;2024-02-23T06:41:01;2.37;;;1.20;;
11731;SDS011;5922;53.734;10.258;2024-02-23T06:43:29;3.00;;;1.30;;
11731;SDS011;5922;53.734;10.258;2024-02-23T06:45:56;4.60;;;1.20;;
11731;SDS011;5922;53.734;10.258;2024-02-23T06:48:25;2.37;;;1.33;;
11731;SDS011;5922;53.734;10.258;2024-02-23T06:50:52;2.37;;;1.00;;
11731;SDS011;5922;53.734;10.258;2024-02-23T06:53:19;2.13;;;1.33;;
11731;SDS011;5922;53.734;10.258;2024-02-23T06:55:52;5.00;;;1.60;;
11731;SDS011;5922;53.734;10.258;2024-02-23T06:58:26;4.80;;;1.77;;
11731;SDS011;5922;53.734;10.258;2024-02-23T07:01:02;3.00;;;1.40;;
11731;SDS011;5922;53.734;10.258;2024-02-23T07:06:29;2.87;;;1.40;;
11731;SDS011;5922;53.734;10.258;2024-02-23T07:09:07;1.63;;;1.30;;
11731;SDS011;5922;53.734;10.258;2024-02-23T07:11:50;3.43;;;1.40;;
11731;SDS011;5922;53.734;10.258;2024-02-23T07:14:29;2.70;;;1.70;;
11731;SDS011;5922;53.734;10.258;2024-02-23T07:16:59;2.07;;;1.20;;
11731;SDS011;5922;53.734;10.258;2024-02-23T07:22:29;4.57;;;1.20;;
11731;SDS011;5922;53.734;10.258;2024-02-23T07:25:01;2.43;;;1.40;;
11731;SDS011;5922;53.734;10.258;2024-02-23T07:30:22;5.20;;;1.60;;
11731;SDS011;5922;53.734;10.258;2024-02-23T07:32:51;2.40;;;1.50;;
11731;SDS011;5922;53.734;10.258;2024-02-23T07:35:19;3.43;;;1.67;;
11731;SDS011;5922;53.734;10.258;2024-02-23T07:37:53;3.03;;;1.90;;
11731;SDS011;5922;53.734;10.258;2024-02-23T07:40:27;3.73;;;1.80;;
11731;SDS011;5922;53.734;10.258;2024-02-23T07:43:03;3.60;;;1.50;;
11731;SDS011;5922;53.734;10.258;2024-02-23T07:45:35;5.87;;;1.97;;
11731;SDS011;5922;53.734;10.258;2024-02-23T07:48:03;3.17;;;2.10;;
11731;SDS011;5922;53.734;10.258;2024-02-23T07:53:34;2.87;;;1.60;;
11731;SDS011;5922;53.734;10.258;2024-02-23T07:56:09;2.10;;;1.70;;
11731;SDS011;5922;53.734;10.258;2024-02-23T07:58:44;3.53;;;1.70;;
11731;SDS011;5922;53.734;10.258;2024-02-23T08:01:12;2.67;;;1.40;;
11731;SDS011;5922;53.734;10.258;2024-02-23T08:03:42;2.97;;;1.37;;
11731;SDS011;5922;53.734;10.258;2024-02-23T08:06:24;4.33;;;1.50;;
11731;SDS011;5922;53.734;10.258;2024-02-23T08:09:15;5.80;;;1.53;;
11731;SDS011;5922;53.734;10.258;2024-02-23T08:11:42;3.60;;;1.80;;
11731;SDS011;5922;53.734;10.258;2024-02-23T08:14:16;3.67;;;1.83;;
11731;SDS011;5922;53.734;10.258;2024-02-23T08:16:45;4.07;;;1.50;;
11731;SDS011;5922;53.734;10.258;2024-02-23T08:19:22;2.97;;;1.73;;
11731;SDS011;5922;53.734;10.258;2024-02-23T08:22:02;5.57;;;1.80;;
11731;SDS011;5922;53.734;10.258;2024-02-23T08:24:46;3.53;;;1.80;;
11731;SDS011;5922;53.734;10.258;2024-02-23T08:27:44;6.17;;;1.90;;
11731;SDS011;5922;53.734;10.258;2024-02-23T08:30:15;4.33;;;1.70;;
11731;SDS011;5922;53.734;10.258;2024-02-23T08:32:56;3.87;;;1.70;;
11731;SDS011;5922;53.734;10.258;2024-02-23T08:35:37;3.03;;;1.70;;
11731;SDS011;5922;53.734;10.258;2024-02-23T08:38:13;4.13;;;2.00;;
11731;SDS011;5922;53.734;10.258;2024-02-23T08:40:48;5.00;;;1.83;;
11731;SDS011;5922;53.734;10.258;2024-02-23T08:43:20;4.57;;;1.60;;
11731;SDS011;5922;53.734;10.258;2024-02-23T08:46:11;6.10;;;1.70;;
11731;SDS011;5922;53.734;10.258;2024-02-23T08:49:08;3.50;;;2.17;;
11731;SDS011;5922;53.734;10.258;2024-02-23T08:54:50;4.67;;;1.90;;
11731;SDS011;5922;53.734;10.258;2024-02-23T08:57:35;4.83;;;1.50;;
11731;SDS011;5922;53.734;10.258;2024-02-23T09:00:22;3.17;;;1.40;;
11731;SDS011;5922;53.734;10.258;2024-02-23T09:03:01;5.63;;;1.60;;
11731;SDS011;5922;53.734;10.258;2024-02-23T09:05:35;3.63;;;1.60;;
11731;SDS011;5922;53.734;10.258;2024-02-23T09:08:08;2.20;;;1.57;;
11731;SDS011;5922;53.734;10.258;2024-02-23T09:10:42;5.13;;;1.60;;
11731;SDS011;5922;53.734;10.258;2024-02-23T09:13:19;5.67;;;1.63;;
11731;SDS011;5922;53.734;10.258;2024-02-23T09:15:54;3.17;;;1.73;;
11731;SDS011;5922;53.734;10.258;2024-02-23T09:18:28;3.17;;;1.43;;
11731;SDS011;5922;53.734;10.258;2024-02-23T09:20:56;4.47;;;1.73;;
11731;SDS011;5922;53.734;10.258;2024-02-23T09:23:33;8.97;;;2.60;;
11731;SDS011;5922;53.734;10.258;2024-02-23T09:26:08;3.10;;;1.50;;
11731;SDS011;5922;53.734;10.258;2024-02-23T09:28:41;6.93;;;1.43;;
11731;SDS011;5922;53.734;10.258;2024-02-23T09:31:10;6.73;;;1.80;;
11731;SDS011;5922;53.734;10.258;2024-02-23T09:33:39;7.57;;;1.70;;
11731;SDS011;5922;53.734;10.258;2024-02-23T09:36:09;5.40;;;1.67;;
11731;SDS011;5922;53.734;10.258;2024-02-23T09:38:46;6.47;;;2.07;;
11731;SDS011;5922;53.734;10.258;2024-02-23T09:41:19;3.50;;;1.40;;
11731;SDS011;5922;53.734;10.258;2024-02-23T09:43:48;2.77;;;1.50;;
11731;SDS011;5922;53.734;10.258;2024-02-23T09:46:16;4.37;;;1.40;;
11731;SDS011;5922;53.734;10.258;2024-02-23T09:48:47;5.20;;;1.90;;
11731;SDS011;5922;53.734;10.258;2024-02-23T09:51:15;5.70;;;1.40;;
11731;SDS011;5922;53.734;10.258;2024-02-23T09:53:44;1.97;;;1.40;;
11731;SDS011;5922;53.734;10.258;2024-02-23T09:56:11;4.97;;;1.70;;
11731;SDS011;5922;53.734;10.258;2024-02-23T09:58:45;5.70;;;1.70;;
11731;SDS011;5922;53.734;10.258;2024-02-23T10:01:18;4.53;;;1.97;;
11731;SDS011;5922;53.734;10.258;2024-02-23T10:03:49;3.80;;;1.30;;
11731;SDS011;5922;53.734;10.258;2024-02-23T10:06:22;2.70;;;1.67;;
11731;SDS011;5922;53.734;10.258;2024-02-23T10:08:52;3.13;;;1.43;;
11731;SDS011;5922;53.734;10.258;2024-02-23T10:11:20;3.97;;;1.50;;
11731;SDS011;5922;53.734;10.258;2024-02-23T10:13:48;4.50;;;1.70;;
11731;SDS011;5922;53.734;10.258;2024-02-23T10:16:29;3.10;;;1.30;;
11731;SDS011;5922;53.734;10.258;2024-02-23T10:19:00;3.40;;;1.53;;
11731;SDS011;5922;53.734;10.258;2024-02-23T10:21:33;3.67;;;1.70;;
11731;SDS011;5922;53.734;10.258;2024-02-23T10:24:04;4.23;;;1.60;;
11731;SDS011;5922;53.734;10.258;2024-02-23T10:26:35;3.23;;;1.40;;
11731;SDS011;5922;53.734;10.258;2024-02-23T10:29:03;4.03;;;1.40;;
11731;SDS011;5922;53.734;10.258;2024-02-23T10:31:33;3.47;;;1.53;;
11731;SDS011;5922;53.734;10.258;2024-02-23T10:34:03;3.80;;;1.53;;
11731;SDS011;5922;53.734;10.258;2024-02-23T10:36:34;4.47;;;1.63;;
11731;SDS011;5922;53.734;10.258;2024-02-23T10:39:03;7.57;;;1.70;;
11731;SDS011;5922;53.734;10.258;2024-02-23T10:41:31;4.30;;;1.70;;
11731;SDS011;5922;53.734;10.258;2024-02-23T10:44:01;3.83;;;1.50;;
11731;SDS011;5922;53.734;10.258;2024-02-23T10:46:33;5.37;;;1.50;;
11731;SDS011;5922;53.734;10.258;2024-02-23T10:49:01;2.60;;;1.40;;
11731;SDS011;5922;53.734;10.258;2024-02-23T10:51:28;4.63;;;1.77;;
11731;SDS011;5922;53.734;10.258;2024-02-23T10:54:00;3.67;;;1.60;;
11731;SDS011;5922;53.734;10.258;2024-02-23T10:56:28;4.57;;;1.77;;
11731;SDS011;5922;53.734;10.258;2024-02-23T10:58:55;2.30;;;1.50;;
11731;SDS011;5922;53.734;10.258;2024-02-23T11:01:22;4.20;;;1.53;;
11731;SDS011;5922;53.734;10.258;2024-02-23T11:03:52;3.93;;;1.60;;
11731;SDS011;5922;53.734;10.258;2024-02-23T11:06:20;2.97;;;1.50;;
11731;SDS011;5922;53.734;10.258;2024-02-23T11:09:04;4.13;;;1.50;;
11731;SDS011;5922;53.734;10.258;2024-02-23T11:11:32;4.37;;;1.97;;
11731;SDS011;5922;53.734;10.258;2024-02-23T11:14:02;8.70;;;1.60;;
11731;SDS011;5922;53.734;10.258;2024-02-23T11:16:31;6.07;;;1.60;;
11731;SDS011;5922;53.734;10.258;2024-02-23T11:19:08;7.73;;;1.60;;
11731;SDS011;5922;53.734;10.258;2024-02-23T11:21:36;6.00;;;1.50;;
11731;SDS011;5922;53.734;10.258;2024-02-23T11:24:04;7.93;;;1.60;;
11731;SDS011;5922;53.734;10.258;2024-02-23T11:26:31;4.23;;;1.60;;
11731;SDS011;5922;53.734;10.258;2024-02-23T11:29:09;6.33;;;1.37;;
11731;SDS011;5922;53.734;10.258;2024-02-23T11:31:36;2.17;;;1.33;;
11731;SDS011;5922;53.734;10.258;2024-02-23T11:34:07;4.80;;;1.30;;
11731;SDS011;5922;53.734;10.258;2024-02-23T11:36:37;3.33;;;1.57;;
11731;SDS011;5922;53.734;10.258;2024-02-23T11:39:05;6.20;;;1.63;;
11731;SDS011;5922;53.734;10.258;2024-02-23T11:41:32;2.00;;;1.10;;
11731;SDS011;5922;53.734;10.258;2024-02-23T11:44:00;2.27;;;1.40;;
11731;SDS011;5922;53.734;10.258;2024-02-23T11:46:28;3.10;;;1.40;;
11731;SDS011;5922;53.734;10.258;2024-02-23T11:48:55;3.83;;;1.30;;
11731;SDS011;5922;53.734;10.258;2024-02-23T11:51:23;2.67;;;1.43;;
11731;SDS011;5922;53.734;10.258;2024-02-23T11:53:56;3.10;;;1.17;;
11731;SDS011;5922;53.734;10.258;2024-02-23T11:56:25;4.67;;;1.30;;
11731;SDS011;5922;53.734;10.258;2024-02-23T11:58:53;4.77;;;1.60;;
11731;SDS011;5922;53.734;10.258;2024-02-23T12:01:21;2.03;;;1.40;;
11731;SDS011;5922;53.734;10.258;2024-02-23T12:03:48;3.47;;;1.47;;
11731;SDS011;5922;53.734;10.258;2024-02-23T12:06:15;2.43;;;1.07;;
11731;SDS011;5922;53.734;10.258;2024-02-23T12:08:43;3.13;;;1.50;;
11731;SDS011;5922;53.734;10.258;2024-02-23T12:11:13;4.07;;;1.40;;
11731;SDS011;5922;53.734;10.258;2024-02-23T12:13:40;6.83;;;1.50;;
11731;SDS011;5922;53.734;10.258;2024-02-23T12:16:07;3.67;;;1.20;;
11731;SDS011;5922;53.734;10.258;2024-02-23T12:18:35;7.43;;;1.53;;
11731;SDS011;5922;53.734;10.258;2024-02-23T12:21:04;6.20;;;1.73;;
11731;SDS011;5922;53.734;10.258;2024-02-23T12:23:39;5.23;;;1.40;;
11731;SDS011;5922;53.734;10.258;2024-02-23T12:26:06;4.90;;;1.43;;
11731;SDS011;5922;53.734;10.258;2024-02-23T12:28:35;3.87;;;1.10;;
11731;SDS011;5922;53.734;10.258;2024-02-23T12:31:03;3.77;;;1.27;;
11731;SDS011;5922;53.734;10.258;2024-02-23T12:33:31;2.03;;;1.20;;
11731;SDS011;5922;53.734;10.258;2024-02-23T12:35:59;3.13;;;1.47;;
11731;SDS011;5922;53.734;10.258;2024-02-23T12:38:27;5.00;;;1.27;;
11731;SDS011;5922;53.734;10.258;2024-02-23T12:40:54;7.93;;;1.40;;
11731;SDS011;5922;53.734;10.258;2024-02-23T12:43:21;3.17;;;1.40;;
11731;SDS011;5922;53.734;10.258;2024-02-23T12:45:51;4.47;;;1.33;;
11731;SDS011;5922;53.734;10.258;2024-02-23T12:48:19;3.70;;;1.20;;
11731;SDS011;5922;53.734;10.258;2024-02-23T12:50:46;6.23;;;1.40;;
11731;SDS011;5922;53.734;10.258;2024-02-23T12:53:29;1.63;;;1.40;;
11731;SDS011;5922;53.734;10.258;2024-02-23T12:55:57;2.57;;;1.10;;
11731;SDS011;5922;53.734;10.258;2024-02-23T12:58:25;2.70;;;1.07;;
11731;SDS011;5922;53.734;10.258;2024-02-23T13:00:53;2.97;;;1.27;;
11731;SDS011;5922;53.734;10.258;2024-02-23T13:03:21;1.73;;;0.90;;
11731;SDS011;5922;53.734;10.258;2024-02-23T13:05:48;3.33;;;1.40;;
11731;SDS011;5922;53.734;10.258;2024-02-23T13:08:15;3.00;;;0.93;;
11731;SDS011;5922;53.734;10.258;2024-02-23T13:10:43;2.73;;;1.07;;
11731;SDS011;5922;53.734;10.258;2024-02-23T13:13:10;1.33;;;0.97;;
11731;SDS011;5922;53.734;10.258;2024-02-23T13:15:39;4.00;;;1.20;;
11731;SDS011;5922;53.734;10.258;2024-02-23T13:18:08;2.90;;;1.10;;
11731;SDS011;5922;53.734;10.258;2024-02-23T13:20:35;2.63;;;0.90;;
11731;SDS011;5922;53.734;10.258;2024-02-23T13:23:03;2.80;;;1.30;;
11731;SDS011;5922;53.734;10.258;2024-02-23T13:25:32;1.77;;;1.10;;
11731;SDS011;5922;53.734;10.258;2024-02-23T13:27:59;2.13;;;1.10;;
11731;SDS011;5922;53.734;10.258;2024-02-23T13:30:26;2.07;;;1.20;;
11731;SDS011;5922;53.734;10.258;2024-02-23T13:32:54;1.50;;;1.10;;
11731;SDS011;5922;53.734;10.258;2024-02-23T13:35:22;2.00;;;1.40;;
11731;SDS011;5922;53.734;10.258;2024-02-23T13:37:50;3.07;;;1.00;;
11731;SDS011;5922;53.734;10.258;2024-02-23T13:40:17;5.10;;;1.20;;
11731;SDS011;5922;53.734;10.258;2024-02-23T13:42:44;2.20;;;1.23;;
11731;SDS011;5922;53.734;10.258;2024-02-23T13:45:14;3.53;;;1.10;;
11731;SDS011;5922;53.734;10.258;2024-02-23T13:47:42;2.30;;;1.00;;
11731;SDS011;5922;53.734;10.258;2024-02-23T13:50:10;4.53;;;1.20;;
11731;SDS011;5922;53.734;10.258;2024-02-23T13:52:40;1.40;;;1.20;;
11731;SDS011;5922;53.734;10.258;2024-02-23T13:55:07;2.60;;;1.27;;
11731;SDS011;5922;53.734;10.258;2024-02-23T13:57:35;3.30;;;1.03;;
11731;SDS011;5922;53.734;10.258;2024-02-23T14:00:03;2.93;;;1.23;;
11731;SDS011;5922;53.734;10.258;2024-02-23T14:02:37;1.73;;;0.90;;
11731;SDS011;5922;53.734;10.258;2024-02-23T14:05:06;4.43;;;1.17;;
11731;SDS011;5922;53.734;10.258;2024-02-23T14:07:33;1.00;;;1.00;;
11731;SDS011;5922;53.734;10.258;2024-02-23T14:10:02;2.27;;;1.40;;
11731;SDS011;5922;53.734;10.258;2024-02-23T14:12:29;2.20;;;1.23;;
11731;SDS011;5922;53.734;10.258;2024-02-23T14:14:57;2.30;;;1.17;;
11731;SDS011;5922;53.734;10.258;2024-02-23T14:17:24;1.33;;;1.07;;
11731;SDS011;5922;53.734;10.258;2024-02-23T14:19:51;4.00;;;1.23;;
11731;SDS011;5922;53.734;10.258;2024-02-23T14:22:18;2.63;;;1.20;;
11731;SDS011;5922;53.734;10.258;2024-02-23T14:24:48;2.47;;;1.17;;
11731;SDS011;5922;53.734;10.258;2024-02-23T14:27:17;2.83;;;1.17;;
11731;SDS011;5922;53.734;10.258;2024-02-23T14:29:44;1.23;;;0.93;;
11731;SDS011;5922;53.734;10.258;2024-02-23T14:32:11;2.33;;;1.10;;
11731;SDS011;5922;53.734;10.258;2024-02-23T14:34:42;2.07;;;1.50;;
11731;SDS011;5922;53.734;10.258;2024-02-23T14:37:09;3.70;;;1.20;;
11731;SDS011;5922;53.734;10.258;2024-02-23T14:39:36;1.20;;;1.10;;
11731;SDS011;5922;53.734;10.258;2024-02-23T14:42:03;4.63;;;1.27;;
11731;SDS011;5922;53.734;10.258;2024-02-23T14:44:35;3.13;;;1.30;;
11731;SDS011;5922;53.734;10.258;2024-02-23T14:47:02;6.47;;;1.53;;
11731;SDS011;5922;53.734;10.258;2024-02-23T14:49:30;3.70;;;1.10;;
11731;SDS011;5922;53.734;10.258;2024-02-23T14:51:59;1.40;;;0.77;;
11731;SDS011;5922;53.734;10.258;2024-02-23T14:54:26;1.37;;;1.23;;
11731;SDS011;5922;53.734;10.258;2024-02-23T14:56:54;2.27;;;0.90;;
11731;SDS011;5922;53.734;10.258;2024-02-23T14:59:21;2.53;;;1.37;;
11731;SDS011;5922;53.734;10.258;2024-02-23T15:01:50;1.93;;;1.00;;
11731;SDS011;5922;53.734;10.258;2024-02-23T15:04:18;1.50;;;1.00;;
11731;SDS011;5922;53.734;10.258;2024-02-23T15:06:47;6.97;;;1.30;;
11731;SDS011;5922;53.734;10.258;2024-02-23T15:09:18;3.57;;;1.20;;
11731;SDS011;5922;53.734;10.258;2024-02-23T15:11:51;1.97;;;0.83;;
11731;SDS011;5922;53.734;10.258;2024-02-23T15:14:18;1.43;;;1.10;;
11731;SDS011;5922;53.734;10.258;2024-02-23T15:16:50;2.20;;;1.13;;